Terminal Aerodrome Forecast
Issued by NWS Twin Cities, MN

Home | Current Version | Previous Version | Graphics & Text | Print | Product List | Glossary On
Versions: 1 2 3 4 5 6 7 8 9 10 11 12 13 14
465
FTUS43 KMPX 050538
TAFSTC
TAF
KSTC 050538Z 0506/0606 VRB03KT P6SM SCT250
     FM051300 15006KT P6SM OVC090
     FM051600 18007KT P6SM OVC040
     FM051900 19008KT 3SM -SN BR OVC022
     FM060000 24005KT P6SM BKN022=

USA.gov is the U.S. government's official web portal to all federal, state and local government web resources and services.